createdAt,value
2019-01-29T00:01:25.278Z,5.97
2019-01-29T00:03:54.645Z,5.37
2019-01-29T00:06:24.093Z,6.83
2019-01-29T00:08:53.927Z,4.50
2019-01-29T00:11:23.432Z,6.43
2019-01-29T00:13:52.828Z,5.87
2019-01-29T00:16:22.196Z,5.73
2019-01-29T00:18:51.635Z,3.43
2019-01-29T00:21:21.079Z,2.70
2019-01-29T00:23:50.516Z,2.63
2019-01-29T00:26:19.879Z,1.47
2019-01-29T00:28:49.650Z,1.17
2019-01-29T00:31:19.076Z,2.43
2019-01-29T00:33:48.562Z,4.07
2019-01-29T00:36:17.980Z,2.37
2019-01-29T00:38:47.849Z,3.07
2019-01-29T00:41:17.698Z,0.90
2019-01-29T00:43:47.087Z,2.17
2019-01-29T00:46:16.878Z,2.73
2019-01-29T00:48:46.317Z,2.80
2019-01-29T00:51:15.723Z,3.13
2019-01-29T00:53:45.500Z,2.53
2019-01-29T00:56:15.126Z,2.90
2019-01-29T00:58:44.517Z,2.90
2019-01-29T01:01:13.894Z,4.10
2019-01-29T01:03:43.349Z,6.40
2019-01-29T01:06:12.848Z,5.20
2019-01-29T01:08:42.301Z,5.33
2019-01-29T01:11:11.850Z,3.87
2019-01-29T01:13:41.343Z,3.87
2019-01-29T01:16:11.214Z,4.73
2019-01-29T01:18:40.654Z,3.53
2019-01-29T01:21:10.457Z,4.20
2019-01-29T01:23:39.906Z,5.10
2019-01-29T01:26:09.563Z,7.73
2019-01-29T01:28:39.009Z,4.10
2019-01-29T01:31:08.391Z,5.00
2019-01-29T01:33:38.243Z,9.20
2019-01-29T01:36:07.713Z,4.83
2019-01-29T01:38:37.232Z,8.40
2019-01-29T01:41:06.816Z,4.73
2019-01-29T01:43:36.370Z,6.63
2019-01-29T01:46:05.814Z,9.90
2019-01-29T01:48:35.278Z,7.83
2019-01-29T01:51:04.608Z,5.33
2019-01-29T01:53:34.010Z,6.70
2019-01-29T01:56:03.457Z,8.83
2019-01-29T01:58:32.880Z,8.40
2019-01-29T02:01:02.213Z,9.70
2019-01-29T02:03:31.628Z,7.73
2019-01-29T02:06:01.044Z,7.23
2019-01-29T02:08:30.628Z,9.00
2019-01-29T02:10:59.970Z,9.17
2019-01-29T02:13:29.329Z,8.77
2019-01-29T02:15:58.730Z,11.17
2019-01-29T02:18:28.122Z,7.47
2019-01-29T02:20:57.660Z,7.60
2019-01-29T02:23:27.076Z,7.30
2019-01-29T02:25:56.416Z,9.43
2019-01-29T02:28:25.834Z,5.93
2019-01-29T02:30:55.322Z,8.40
2019-01-29T02:33:25.143Z,7.43
2019-01-29T02:35:54.871Z,7.63
2019-01-29T02:38:24.280Z,9.27
2019-01-29T02:40:53.732Z,8.37
2019-01-29T02:43:23.147Z,6.70
2019-01-29T02:45:52.556Z,9.83
2019-01-29T02:48:22.045Z,5.97
2019-01-29T02:50:51.498Z,5.63
2019-01-29T02:53:20.954Z,6.70
2019-01-29T02:55:50.297Z,11.13
2019-01-29T02:58:19.768Z,6.40
2019-01-29T03:00:49.152Z,9.77
2019-01-29T03:03:18.526Z,8.93
2019-01-29T03:05:48.316Z,7.30
2019-01-29T03:08:17.764Z,5.40
2019-01-29T03:10:47.135Z,5.57
2019-01-29T03:13:16.564Z,5.63
2019-01-29T03:15:46.693Z,5.43
2019-01-29T03:18:16.958Z,11.37
2019-01-29T03:20:46.397Z,7.97
2019-01-29T03:23:15.806Z,5.10
2019-01-29T03:25:45.192Z,6.30
2019-01-29T03:28:14.554Z,3.57
2019-01-29T03:30:43.972Z,8.23
2019-01-29T03:33:13.405Z,10.37
2019-01-29T03:35:42.824Z,4.07
2019-01-29T03:38:12.636Z,11.53
2019-01-29T03:40:41.964Z,8.27
2019-01-29T03:43:11.354Z,6.83
2019-01-29T03:45:41.212Z,6.87
2019-01-29T03:48:10.596Z,10.73
2019-01-29T03:50:40.032Z,9.27
2019-01-29T03:53:09.491Z,6.73
2019-01-29T03:55:38.892Z,3.30
2019-01-29T03:58:08.259Z,4.90
2019-01-29T04:00:37.677Z,6.87
2019-01-29T04:03:07.428Z,4.63
2019-01-29T04:05:36.826Z,5.47
2019-01-29T04:08:06.489Z,8.77
2019-01-29T04:10:35.917Z,8.63
2019-01-29T04:13:05.339Z,6.27
2019-01-29T04:15:34.806Z,6.93
2019-01-29T04:18:04.531Z,7.93
2019-01-29T04:20:34.080Z,9.17
2019-01-29T04:23:03.494Z,8.43
2019-01-29T04:25:32.896Z,9.27
2019-01-29T04:28:02.362Z,14.23
2019-01-29T04:30:31.766Z,4.07
2019-01-29T04:33:01.163Z,7.23
2019-01-29T04:35:31.195Z,9.23
2019-01-29T04:38:00.661Z,8.00
2019-01-29T04:40:30.825Z,10.40
2019-01-29T04:43:00.650Z,5.00
2019-01-29T04:45:30.421Z,15.13
2019-01-29T04:47:59.762Z,7.87
2019-01-29T04:50:29.137Z,10.13
2019-01-29T04:52:59.271Z,11.47
2019-01-29T04:55:28.778Z,8.47
2019-01-29T04:57:58.200Z,9.47
2019-01-29T05:00:28.208Z,7.20
2019-01-29T05:02:57.831Z,7.90
2019-01-29T05:05:27.236Z,9.67
2019-01-29T05:07:56.920Z,13.67
2019-01-29T05:10:26.315Z,13.43
2019-01-29T05:12:55.788Z,8.87
2019-01-29T05:15:25.198Z,6.83
2019-01-29T05:17:54.597Z,16.07
2019-01-29T05:20:24.371Z,9.97
2019-01-29T05:22:53.841Z,12.30
2019-01-29T05:25:23.187Z,9.90
2019-01-29T05:27:52.584Z,10.10
2019-01-29T05:30:26.041Z,10.77
2019-01-29T05:32:55.466Z,11.73
2019-01-29T05:35:24.897Z,9.30
2019-01-29T05:37:54.319Z,8.20
2019-01-29T05:40:24.695Z,12.00
2019-01-29T05:42:54.134Z,8.77
2019-01-29T05:45:24.765Z,9.87
2019-01-29T05:47:54.198Z,9.53
2019-01-29T05:50:23.649Z,13.33
2019-01-29T05:52:53.046Z,6.40
2019-01-29T05:55:22.515Z,9.87
2019-01-29T05:57:51.961Z,6.17
2019-01-29T06:00:29.379Z,10.07
2019-01-29T06:02:58.812Z,11.73
2019-01-29T06:05:28.441Z,6.57
2019-01-29T06:07:57.913Z,9.90
2019-01-29T06:10:27.366Z,5.53
2019-01-29T06:12:56.813Z,8.20
2019-01-29T06:15:26.606Z,8.77
2019-01-29T06:17:55.966Z,10.53
2019-01-29T06:20:26.377Z,10.00
2019-01-29T06:22:56.054Z,5.83
2019-01-29T06:25:25.614Z,6.60
2019-01-29T06:27:55.529Z,6.97
2019-01-29T06:30:25.653Z,9.33
2019-01-29T06:32:55.987Z,5.83
2019-01-29T06:35:25.642Z,6.70
2019-01-29T06:37:55.094Z,7.67
2019-01-29T06:40:26.641Z,8.53
2019-01-29T06:42:56.132Z,6.80
2019-01-29T06:45:26.138Z,5.73
2019-01-29T06:47:56.048Z,11.87
2019-01-29T06:50:26.679Z,12.03
2019-01-29T06:52:56.891Z,10.83
2019-01-29T06:55:26.570Z,13.23
2019-01-29T06:57:56.250Z,6.17
2019-01-29T07:00:27.859Z,6.10
2019-01-29T07:02:57.970Z,7.23
2019-01-29T07:05:27.403Z,9.17
2019-01-29T07:07:56.902Z,9.60
2019-01-29T07:10:27.035Z,9.57
2019-01-29T07:12:56.503Z,8.23
2019-01-29T07:15:44.608Z,8.93
2019-01-29T07:18:33.379Z,13.77
2019-01-29T07:21:05.132Z,9.67
2019-01-29T07:23:35.243Z,9.47
2019-01-29T07:26:05.157Z,8.37
2019-01-29T07:28:35.375Z,10.23
2019-01-29T07:31:05.429Z,9.43
2019-01-29T07:33:34.869Z,7.30
2019-01-29T07:36:04.315Z,8.20
2019-01-29T07:38:33.765Z,8.03
2019-01-29T07:41:03.543Z,8.50
2019-01-29T07:43:32.999Z,9.20
2019-01-29T07:46:02.506Z,9.17
2019-01-29T07:48:31.951Z,8.63
2019-01-29T07:51:01.363Z,8.77
2019-01-29T07:53:31.185Z,7.10
2019-01-29T07:56:00.545Z,8.97
2019-01-29T07:58:30.309Z,12.87
2019-01-29T08:00:59.715Z,9.50
2019-01-29T08:03:29.165Z,11.40
2019-01-29T08:05:58.601Z,13.77
2019-01-29T08:08:28.012Z,11.77
2019-01-29T08:10:57.435Z,11.00
2019-01-29T08:13:26.875Z,8.23
2019-01-29T08:15:57.093Z,11.40
2019-01-29T08:18:26.576Z,9.00
2019-01-29T08:20:55.974Z,8.47
2019-01-29T08:23:25.739Z,6.50
2019-01-29T08:25:55.293Z,12.70
2019-01-29T08:28:24.916Z,13.47
2019-01-29T08:30:54.553Z,8.03
2019-01-29T08:33:24.021Z,11.90
2019-01-29T08:35:53.465Z,8.70
2019-01-29T08:38:22.920Z,12.30
2019-01-29T08:40:52.393Z,9.30
2019-01-29T08:43:21.903Z,8.00
2019-01-29T08:45:51.320Z,7.57
2019-01-29T08:48:20.705Z,7.40
2019-01-29T08:50:50.117Z,8.63
2019-01-29T08:53:19.463Z,8.17
2019-01-29T08:55:49.099Z,9.50
2019-01-29T08:58:26.727Z,9.77
2019-01-29T09:00:49.637Z,8.90
2019-01-29T09:03:19.169Z,10.00
2019-01-29T09:05:48.579Z,11.37
2019-01-29T09:08:18.331Z,9.53
2019-01-29T09:10:47.837Z,10.77
2019-01-29T09:13:17.241Z,7.20
2019-01-29T09:15:46.939Z,9.27
2019-01-29T09:18:16.520Z,14.73
2019-01-29T09:20:45.961Z,7.13
2019-01-29T09:23:15.376Z,5.90
2019-01-29T09:25:44.833Z,11.60
2019-01-29T09:28:18.486Z,13.73
2019-01-29T09:30:45.361Z,12.20
2019-01-29T09:33:15.108Z,13.93
2019-01-29T09:35:44.739Z,10.30
2019-01-29T09:38:14.151Z,7.37
2019-01-29T09:40:43.622Z,8.87
2019-01-29T09:43:13.179Z,11.40
2019-01-29T09:45:42.591Z,6.10
2019-01-29T09:48:12.058Z,8.77
2019-01-29T09:50:41.692Z,7.90
2019-01-29T09:53:11.875Z,12.70
2019-01-29T09:55:41.329Z,9.27
2019-01-29T09:58:10.805Z,17.83
2019-01-29T10:00:40.524Z,6.23
2019-01-29T10:03:09.987Z,7.77
2019-01-29T10:05:39.364Z,10.60
2019-01-29T10:08:08.779Z,8.53
2019-01-29T10:10:38.235Z,6.17
2019-01-29T10:13:07.749Z,8.00
2019-01-29T10:15:38.016Z,8.57
2019-01-29T10:18:07.557Z,10.07
2019-01-29T10:20:37.752Z,13.87
2019-01-29T10:23:07.970Z,14.03
2019-01-29T10:25:38.246Z,8.43
2019-01-29T10:28:07.677Z,6.50
2019-01-29T10:30:37.061Z,11.30
2019-01-29T10:33:06.821Z,10.50
2019-01-29T10:35:37.568Z,10.20
2019-01-29T10:38:06.949Z,16.43
2019-01-29T10:40:36.680Z,11.00
2019-01-29T10:43:07.850Z,8.53
2019-01-29T10:45:37.429Z,9.53
2019-01-29T10:48:06.937Z,6.97
2019-01-29T10:50:36.698Z,8.77
2019-01-29T10:53:06.351Z,9.50
2019-01-29T10:55:35.757Z,11.33
2019-01-29T10:58:06.264Z,9.53
2019-01-29T11:00:38.131Z,7.70
2019-01-29T11:03:08.336Z,12.27
2019-01-29T11:05:38.310Z,10.40
2019-01-29T11:08:10.855Z,9.10
2019-01-29T11:10:40.410Z,11.83
2019-01-29T11:13:09.842Z,9.60
2019-01-29T11:15:41.258Z,11.87
2019-01-29T11:18:15.468Z,7.93
2019-01-29T11:20:44.839Z,14.90
2019-01-29T11:23:14.388Z,13.63
2019-01-29T11:25:44.138Z,8.80
2019-01-29T11:28:13.601Z,12.30
2019-01-29T11:30:43.232Z,11.03
2019-01-29T11:33:12.780Z,10.40
2019-01-29T11:35:42.186Z,12.93
2019-01-29T11:38:11.620Z,7.23
2019-01-29T11:40:40.987Z,9.00
2019-01-29T11:43:10.380Z,11.33
2019-01-29T11:45:48.862Z,14.57
2019-01-29T11:48:18.281Z,8.23
2019-01-29T11:50:47.786Z,10.83
2019-01-29T11:53:17.336Z,11.20
2019-01-29T11:55:47.152Z,9.23
2019-01-29T11:58:17.030Z,10.60
2019-01-29T12:01:05.542Z,10.03
2019-01-29T12:03:35.018Z,9.17
2019-01-29T12:06:04.960Z,13.57
2019-01-29T12:08:34.346Z,10.83
2019-01-29T12:11:03.798Z,12.73
2019-01-29T12:13:33.230Z,8.20
2019-01-29T12:16:02.620Z,8.93
2019-01-29T12:18:32.010Z,9.90
2019-01-29T12:21:01.443Z,14.07
2019-01-29T12:23:31.003Z,10.17
2019-01-29T12:26:00.627Z,10.70
2019-01-29T12:28:30.166Z,10.83
2019-01-29T12:31:00.109Z,10.00
2019-01-29T12:33:29.590Z,11.80
2019-01-29T12:35:59.100Z,6.43
2019-01-29T12:38:28.563Z,8.13
2019-01-29T12:40:58.092Z,6.90
2019-01-29T12:43:27.779Z,7.83
2019-01-29T12:45:57.219Z,12.07
2019-01-29T12:48:26.656Z,11.33
2019-01-29T12:50:58.008Z,11.30
2019-01-29T12:53:31.725Z,10.40
2019-01-29T12:56:01.213Z,9.47
2019-01-29T12:58:30.652Z,8.67
2019-01-29T13:01:01.266Z,8.77
2019-01-29T13:03:30.674Z,8.53
2019-01-29T13:06:00.241Z,7.97
2019-01-29T13:08:29.992Z,7.07
2019-01-29T13:10:59.727Z,10.67
2019-01-29T13:13:29.828Z,7.30
2019-01-29T13:15:59.372Z,7.30
2019-01-29T13:18:29.318Z,7.10
2019-01-29T13:20:58.896Z,7.13
2019-01-29T13:23:28.473Z,7.17
2019-01-29T13:25:57.909Z,8.40
2019-01-29T13:28:27.738Z,10.30
2019-01-29T13:30:57.401Z,9.30
2019-01-29T13:33:26.996Z,9.13
2019-01-29T13:35:56.512Z,7.50
2019-01-29T13:38:25.896Z,6.80
2019-01-29T13:40:55.740Z,7.70
2019-01-29T13:43:25.222Z,10.27
2019-01-29T13:45:54.582Z,7.67
2019-01-29T13:48:24.140Z,10.20
2019-01-29T13:50:56.548Z,7.53
2019-01-29T13:53:26.008Z,10.87
2019-01-29T13:55:55.554Z,6.53
2019-01-29T13:58:24.944Z,8.40
2019-01-29T14:00:54.831Z,9.60
2019-01-29T14:03:24.607Z,9.27
2019-01-29T14:05:54.070Z,10.30
2019-01-29T14:08:23.467Z,7.57
2019-01-29T14:10:53.040Z,7.47
2019-01-29T14:13:22.496Z,7.10
2019-01-29T14:15:54.266Z,8.00
2019-01-29T14:18:25.721Z,9.33
2019-01-29T14:20:55.131Z,9.27
2019-01-29T14:23:24.727Z,10.33
2019-01-29T14:25:54.217Z,7.73
2019-01-29T14:28:23.696Z,8.57
2019-01-29T14:30:53.057Z,7.77
2019-01-29T14:33:22.584Z,8.07
2019-01-29T14:35:52.484Z,11.37
2019-01-29T14:39:00.100Z,9.80
2019-01-29T14:41:29.564Z,11.87
2019-01-29T14:44:00.334Z,12.57
2019-01-29T14:46:29.778Z,10.17
2019-01-29T14:48:59.194Z,11.17
2019-01-29T14:51:28.642Z,8.60
2019-01-29T14:53:57.994Z,8.77
2019-01-29T14:56:28.445Z,9.90
2019-01-29T14:58:57.820Z,10.23
2019-01-29T15:01:28.055Z,9.63
2019-01-29T15:03:57.518Z,9.00
2019-01-29T15:06:32.612Z,8.17
2019-01-29T15:08:58.949Z,10.07
2019-01-29T15:11:28.384Z,10.67
2019-01-29T15:13:58.322Z,9.50
2019-01-29T15:16:43.311Z,11.83
2019-01-29T15:19:15.874Z,9.70
2019-01-29T15:21:45.700Z,10.47
2019-01-29T15:24:15.166Z,12.73
2019-01-29T15:26:44.619Z,10.43
2019-01-29T15:29:14.056Z,11.63
2019-01-29T15:31:43.514Z,12.00
2019-01-29T15:34:13.293Z,12.60
2019-01-29T15:36:44.163Z,9.53
2019-01-29T15:39:14.073Z,14.70
2019-01-29T15:41:43.441Z,10.90
2019-01-29T15:44:13.061Z,12.13
2019-01-29T15:46:42.549Z,10.77
2019-01-29T15:49:11.962Z,14.00
2019-01-29T15:51:41.420Z,12.27
2019-01-29T15:54:10.889Z,12.00
2019-01-29T15:56:40.340Z,10.27
2019-01-29T15:59:09.688Z,10.33
2019-01-29T16:01:39.117Z,11.40
2019-01-29T16:04:08.534Z,10.80
2019-01-29T16:06:38.446Z,12.07
2019-01-29T16:09:10.053Z,10.83
2019-01-29T16:11:39.575Z,11.27
2019-01-29T16:14:09.026Z,11.13
2019-01-29T16:16:38.848Z,12.57
2019-01-29T16:19:08.814Z,12.83
2019-01-29T16:21:38.408Z,14.97
2019-01-29T16:24:07.801Z,14.50
2019-01-29T16:26:37.149Z,11.57
2019-01-29T16:29:06.698Z,14.77
2019-01-29T16:31:36.137Z,14.20
2019-01-29T16:34:05.485Z,12.33
2019-01-29T16:36:34.953Z,15.97
2019-01-29T16:39:07.078Z,13.93
2019-01-29T16:41:37.465Z,11.80
2019-01-29T16:44:06.839Z,12.10
2019-01-29T16:46:36.253Z,17.23
2019-01-29T16:49:05.676Z,14.13
2019-01-29T16:51:42.079Z,13.67
2019-01-29T16:54:06.317Z,13.43
2019-01-29T16:56:35.997Z,16.73
2019-01-29T16:59:05.656Z,16.63
2019-01-29T17:01:35.087Z,17.90
2019-01-29T17:04:04.612Z,16.40
2019-01-29T17:06:34.197Z,16.37
2019-01-29T17:09:05.457Z,17.03
2019-01-29T17:11:34.833Z,20.70
2019-01-29T17:14:04.186Z,20.40
2019-01-29T17:16:34.077Z,17.67
2019-01-29T17:19:03.500Z,17.33
2019-01-29T17:21:33.417Z,16.90
2019-01-29T17:24:02.901Z,17.90
2019-01-29T17:26:32.382Z,20.47
2019-01-29T17:29:01.882Z,20.23
2019-01-29T17:31:31.370Z,18.37
2019-01-29T17:34:00.798Z,22.93
2019-01-29T17:36:30.307Z,18.73
2019-01-29T17:38:59.851Z,19.60
2019-01-29T17:41:29.559Z,18.67
2019-01-29T17:43:58.993Z,19.97
2019-01-29T17:46:31.010Z,20.77
2019-01-29T17:48:59.605Z,17.93
2019-01-29T17:51:28.984Z,24.57
2019-01-29T17:53:58.403Z,22.17
2019-01-29T17:56:27.837Z,23.63
2019-01-29T17:58:57.183Z,21.77
2019-01-29T18:01:26.697Z,21.17
2019-01-29T18:03:56.208Z,22.17
2019-01-29T18:06:25.633Z,21.37
2019-01-29T18:08:55.057Z,22.17
2019-01-29T18:11:24.756Z,24.23
2019-01-29T18:13:54.439Z,23.97
2019-01-29T18:16:24.065Z,24.47
2019-01-29T18:18:54.079Z,24.97
2019-01-29T18:21:23.489Z,23.90
2019-01-29T18:23:52.959Z,27.10
2019-01-29T18:26:22.415Z,21.73
2019-01-29T18:28:51.880Z,24.10
2019-01-29T18:31:21.341Z,23.60
2019-01-29T18:33:51.589Z,21.90
2019-01-29T18:36:20.979Z,32.67
2019-01-29T18:38:50.417Z,25.77
2019-01-29T18:41:19.979Z,27.20
2019-01-29T18:43:49.451Z,26.83
2019-01-29T18:46:18.903Z,29.87
2019-01-29T18:48:48.471Z,31.30
2019-01-29T18:51:20.421Z,30.27
2019-01-29T18:53:49.002Z,28.43
2019-01-29T18:56:18.720Z,30.57
2019-01-29T18:58:48.186Z,29.30
2019-01-29T19:01:17.734Z,31.90
2019-01-29T19:03:49.709Z,30.17
2019-01-29T19:06:18.419Z,29.17
2019-01-29T19:08:47.849Z,32.33
2019-01-29T19:11:17.591Z,31.40
2019-01-29T19:13:47.257Z,29.57
2019-01-29T19:16:16.942Z,31.67
2019-01-29T19:18:47.799Z,29.07
2019-01-29T19:21:17.309Z,29.73
2019-01-29T19:23:47.287Z,32.47
2019-01-29T19:26:16.708Z,30.80
2019-01-29T19:28:46.170Z,32.97
2019-01-29T19:31:15.615Z,34.17
2019-01-29T19:33:45.095Z,31.60
2019-01-29T19:36:15.017Z,29.73
2019-01-29T19:39:05.307Z,29.47
2019-01-29T19:41:34.829Z,32.47
2019-01-29T19:44:04.517Z,29.07
2019-01-29T19:46:33.885Z,30.70
2019-01-29T19:49:03.393Z,28.73
2019-01-29T19:51:32.885Z,37.83
2019-01-29T19:54:02.365Z,35.87
2019-01-29T19:56:32.891Z,34.23
2019-01-29T19:59:02.260Z,34.53
2019-01-29T20:01:32.110Z,37.13
2019-01-29T20:04:01.569Z,34.47
2019-01-29T20:06:31.171Z,30.33
2019-01-29T20:09:01.457Z,27.90
2019-01-29T20:11:30.869Z,27.97
2019-01-29T20:14:00.327Z,30.43
2019-01-29T20:16:29.789Z,34.73
2019-01-29T20:18:59.220Z,27.83
2019-01-29T20:21:28.895Z,28.97
2019-01-29T20:23:58.263Z,31.87
2019-01-29T20:26:27.984Z,27.60
2019-01-29T20:28:57.597Z,28.70
2019-01-29T20:31:27.118Z,32.23
2019-01-29T20:33:56.758Z,28.83
2019-01-29T20:36:26.195Z,30.53
2019-01-29T20:38:55.513Z,32.33
2019-01-29T20:41:24.889Z,31.73
2019-01-29T20:43:54.635Z,26.33
2019-01-29T20:46:24.073Z,27.83
2019-01-29T20:48:53.441Z,29.03
2019-01-29T20:51:23.187Z,27.40
2019-01-29T20:53:52.653Z,27.23
2019-01-29T20:56:22.084Z,25.07
2019-01-29T20:58:52.697Z,29.57
2019-01-29T21:01:22.571Z,27.30
2019-01-29T21:03:52.039Z,28.33
2019-01-29T21:06:21.694Z,29.53
2019-01-29T21:08:51.499Z,30.13
2019-01-29T21:11:20.939Z,29.63
2019-01-29T21:13:50.631Z,25.37
2019-01-29T21:16:20.177Z,26.03
2019-01-29T21:18:49.656Z,25.53
2019-01-29T21:21:19.112Z,23.60
2019-01-29T21:23:49.117Z,30.23
2019-01-29T21:26:18.817Z,27.57
2019-01-29T21:28:48.167Z,28.77
2019-01-29T21:31:17.641Z,22.27
2019-01-29T21:33:47.058Z,28.20
2019-01-29T21:36:16.698Z,24.77
2019-01-29T21:38:46.067Z,28.37
2019-01-29T21:41:15.510Z,23.20
2019-01-29T21:43:44.972Z,25.43
2019-01-29T21:46:15.003Z,23.83
2019-01-29T21:48:44.463Z,25.77
2019-01-29T21:51:13.896Z,21.20
2019-01-29T21:53:43.354Z,22.13
2019-01-29T21:56:12.808Z,25.83
2019-01-29T21:58:42.245Z,23.10
2019-01-29T22:01:11.610Z,23.17
2019-01-29T22:03:41.410Z,22.33
2019-01-29T22:06:10.808Z,21.47
2019-01-29T22:08:40.275Z,21.63
2019-01-29T22:11:09.723Z,20.40
2019-01-29T22:14:00.639Z,18.30
2019-01-29T22:16:29.377Z,21.37
2019-01-29T22:18:58.889Z,20.20
2019-01-29T22:21:28.688Z,19.97
2019-01-29T22:23:58.066Z,18.73
2019-01-29T22:26:27.493Z,21.53
2019-01-29T22:28:56.854Z,17.47
2019-01-29T22:31:26.640Z,17.07
2019-01-29T22:33:56.149Z,20.53
2019-01-29T22:36:25.617Z,18.33
2019-01-29T22:38:55.048Z,18.37
2019-01-29T22:41:24.577Z,20.80
2019-01-29T22:43:54.193Z,19.77
2019-01-29T22:46:23.621Z,19.73
2019-01-29T22:48:53.757Z,17.97
2019-01-29T22:51:23.186Z,21.47
2019-01-29T22:53:52.845Z,17.77
2019-01-29T22:56:22.377Z,17.17
2019-01-29T22:58:51.758Z,15.70
2019-01-29T23:01:32.736Z,16.33
2019-01-29T23:04:26.010Z,17.93
2019-01-29T23:07:19.066Z,16.37
2019-01-29T23:09:48.510Z,19.30
2019-01-29T23:12:18.897Z,17.47
2019-01-29T23:14:48.636Z,16.50
2019-01-29T23:17:18.202Z,15.87
2019-01-29T23:19:47.637Z,19.90
2019-01-29T23:22:17.089Z,18.13
2019-01-29T23:24:46.458Z,17.30
2019-01-29T23:27:16.383Z,18.60
2019-01-29T23:29:45.808Z,15.33
2019-01-29T23:32:15.346Z,14.33
2019-01-29T23:34:44.784Z,14.03
2019-01-29T23:37:14.216Z,17.07
2019-01-29T23:39:43.583Z,13.07
2019-01-29T23:42:13.606Z,15.03
2019-01-29T23:44:43.029Z,14.50
2019-01-29T23:47:12.446Z,15.33
2019-01-29T23:49:41.888Z,16.10
2019-01-29T23:52:11.316Z,13.50
2019-01-29T23:54:40.707Z,17.83
2019-01-29T23:57:10.077Z,13.07
2019-01-29T23:59:39.508Z,13.67
